Aviation Digital Data Service (ADDS)

Output produced by METARs form (1333 UTC 26 May 2018)
found at http://www.aviationweather.gov/adds/metars/
 
FIMR 261300Z 07008G22KT 9999 FEW018 26/19 Q1018
TAF FIMR 261120Z 2612/2706 09020G35KT 9999 SCT017
       
FIMP 261300Z 08011KT 9999 VCSH SCT016 26/20 Q1018
TAF FIMP 261115Z 2612/2718 10013G23KT 9999 SCT015